createdAt,value
2018-07-19T00:00:20.932Z,22.69
2018-07-19T00:01:20.920Z,22.75
2018-07-19T00:02:20.897Z,22.71
2018-07-19T00:03:20.876Z,22.71
2018-07-19T00:04:20.855Z,22.54
2018-07-19T00:05:20.840Z,22.49
2018-07-19T00:06:20.817Z,22.38
2018-07-19T00:07:20.770Z,22.38
2018-07-19T00:08:20.771Z,22.28
2018-07-19T00:09:20.758Z,22.25
2018-07-19T00:10:20.730Z,22.25
2018-07-19T00:11:20.689Z,22.29
2018-07-19T00:12:20.693Z,22.39
2018-07-19T00:13:20.670Z,22.29
2018-07-19T00:14:20.648Z,22.28
2018-07-19T00:15:20.635Z,22.29
2018-07-19T00:16:20.606Z,22.19
2018-07-19T00:17:20.595Z,22.17
2018-07-19T00:18:20.565Z,22.22
2018-07-19T00:19:20.544Z,22.20
2018-07-19T00:20:20.510Z,22.20
2018-07-19T00:21:20.501Z,22.22
2018-07-19T00:22:20.486Z,22.10
2018-07-19T00:23:20.465Z,22.17
2018-07-19T00:24:20.452Z,22.19
2018-07-19T00:25:20.422Z,22.23
2018-07-19T00:26:20.400Z,22.23
2018-07-19T00:27:20.388Z,22.16
2018-07-19T00:28:20.344Z,22.20
2018-07-19T00:29:20.402Z,22.19
2018-07-19T00:30:20.325Z,22.20
2018-07-19T00:31:20.298Z,22.14
2018-07-19T00:32:20.281Z,22.14
2018-07-19T00:33:20.267Z,22.16
2018-07-19T00:34:20.240Z,22.16
2018-07-19T00:35:20.226Z,22.13
2018-07-19T00:36:20.198Z,22.07
2018-07-19T00:37:20.161Z,21.98
2018-07-19T00:38:20.157Z,21.95
2018-07-19T00:39:20.118Z,21.75
2018-07-19T00:40:20.113Z,21.69
2018-07-19T00:41:20.093Z,21.50
2018-07-19T00:42:20.075Z,21.39
2018-07-19T00:43:20.052Z,21.41
2018-07-19T00:44:20.031Z,21.36
2018-07-19T00:45:20.017Z,21.38
2018-07-19T00:46:19.989Z,21.38
2018-07-19T00:47:19.968Z,21.39
2018-07-19T00:48:19.952Z,21.34
2018-07-19T00:49:19.926Z,21.39
2018-07-19T00:50:19.903Z,21.42
2018-07-19T00:51:19.881Z,21.42
2018-07-19T00:52:19.864Z,21.34
2018-07-19T00:53:19.822Z,21.45
2018-07-19T00:54:19.805Z,21.46
2018-07-19T00:55:19.802Z,21.44
2018-07-19T00:56:19.765Z,21.50
2018-07-19T00:57:19.763Z,21.50
2018-07-19T00:58:19.739Z,21.44
2018-07-19T00:59:19.716Z,21.59
2018-07-19T01:00:19.706Z,21.53
2018-07-19T01:01:19.683Z,21.57
2018-07-19T01:02:19.664Z,21.50
2018-07-19T01:03:19.636Z,21.54
2018-07-19T01:04:19.616Z,21.44
2018-07-19T01:05:19.597Z,21.42
2018-07-19T01:06:19.570Z,21.46
2018-07-19T01:07:19.527Z,21.39
2018-07-19T01:08:19.515Z,21.48
2018-07-19T01:09:19.514Z,21.39
2018-07-19T01:10:19.472Z,21.45
2018-07-19T01:11:19.462Z,21.48
2018-07-19T01:12:19.448Z,21.45
2018-07-19T01:13:19.425Z,21.45
2018-07-19T01:14:19.412Z,21.46
2018-07-19T01:15:19.388Z,21.57
2018-07-19T01:16:19.366Z,21.50
2018-07-19T01:17:19.340Z,21.60
2018-07-19T01:18:19.317Z,21.48
2018-07-19T01:19:19.296Z,21.53
2018-07-19T01:20:19.282Z,21.41
2018-07-19T01:21:19.257Z,21.32
2018-07-19T01:22:19.235Z,21.30
2018-07-19T01:23:19.215Z,21.16
2018-07-19T01:24:19.198Z,21.04
2018-07-19T01:25:19.173Z,21.06
2018-07-19T01:26:19.152Z,21.01
2018-07-19T01:27:19.128Z,20.91
2018-07-19T01:28:19.117Z,20.81
2018-07-19T01:29:19.089Z,20.84
2018-07-19T01:30:19.071Z,20.91
2018-07-19T01:31:19.055Z,20.77
2018-07-19T01:32:19.027Z,20.71
2018-07-19T01:33:19.003Z,20.69
2018-07-19T01:34:18.982Z,20.68
2018-07-19T01:35:18.942Z,20.49
2018-07-19T01:36:18.936Z,20.34
2018-07-19T01:37:18.920Z,20.41
2018-07-19T01:38:18.897Z,20.30
2018-07-19T01:39:18.880Z,20.28
2018-07-19T01:40:18.859Z,20.30
2018-07-19T01:41:18.835Z,20.33
2018-07-19T01:42:18.814Z,20.27
2018-07-19T01:43:18.795Z,20.30
2018-07-19T01:44:18.775Z,20.15
2018-07-19T01:45:18.730Z,20.13
2018-07-19T01:46:18.731Z,20.09
2018-07-19T01:47:18.713Z,20.00
2018-07-19T01:48:18.686Z,20.02
2018-07-19T01:49:18.672Z,19.90
2018-07-19T01:50:18.642Z,19.91
2018-07-19T01:51:18.596Z,19.86
2018-07-19T01:52:18.598Z,19.86
2018-07-19T01:53:18.576Z,19.86
2018-07-19T01:54:18.564Z,19.84
2018-07-19T01:55:18.516Z,19.86
2018-07-19T01:56:18.523Z,19.86
2018-07-19T01:57:18.493Z,19.86
2018-07-19T01:58:18.471Z,19.91
2018-07-19T01:59:18.448Z,19.88
2018-07-19T02:00:18.429Z,19.86
2018-07-19T02:01:18.410Z,19.88
2018-07-19T02:02:18.388Z,19.90
2018-07-19T02:03:18.358Z,20.00
2018-07-19T02:04:18.323Z,20.05
2018-07-19T02:05:18.332Z,20.05
2018-07-19T02:06:18.304Z,20.05
2018-07-19T02:07:18.275Z,19.97
2018-07-19T02:08:18.234Z,20.03
2018-07-19T02:09:18.240Z,20.03
2018-07-19T02:10:18.210Z,20.05
2018-07-19T02:11:18.188Z,20.13
2018-07-19T02:12:18.144Z,20.15
2018-07-19T02:13:18.149Z,20.09
2018-07-19T02:14:18.129Z,20.16
2018-07-19T02:15:18.084Z,20.12
2018-07-19T02:16:18.066Z,20.13
2018-07-19T02:17:18.042Z,20.12
2018-07-19T02:18:18.023Z,20.10
2018-07-19T02:19:18.021Z,20.10
2018-07-19T02:20:17.998Z,20.10
2018-07-19T02:21:17.954Z,20.10
2018-07-19T02:22:17.954Z,20.06
2018-07-19T02:23:17.908Z,19.98
2018-07-19T02:24:17.909Z,19.98
2018-07-19T02:25:17.886Z,19.94
2018-07-19T02:26:17.863Z,19.97
2018-07-19T02:27:17.848Z,19.91
2018-07-19T02:28:17.817Z,19.83
2018-07-19T02:29:17.801Z,19.80
2018-07-19T02:30:17.754Z,19.86
2018-07-19T02:31:17.755Z,19.83
2018-07-19T02:32:17.737Z,19.78
2018-07-19T02:33:17.692Z,19.69
2018-07-19T02:34:17.696Z,19.73
2018-07-19T02:35:17.655Z,19.75
2018-07-19T02:36:17.628Z,19.83
2018-07-19T02:37:17.622Z,19.68
2018-07-19T02:38:17.599Z,19.63
2018-07-19T02:39:17.591Z,19.58
2018-07-19T02:40:17.564Z,19.60
2018-07-19T02:41:17.541Z,19.48
2018-07-19T02:42:17.516Z,19.50
2018-07-19T02:43:17.475Z,19.54
2018-07-19T02:44:17.461Z,19.50
2018-07-19T02:45:17.453Z,19.50
2018-07-19T02:46:17.430Z,19.43
2018-07-19T02:47:17.408Z,19.50
2018-07-19T02:48:17.389Z,19.53
2018-07-19T02:49:17.370Z,19.51
2018-07-19T02:50:17.345Z,19.51
2018-07-19T02:51:17.321Z,19.51
2018-07-19T02:52:17.279Z,19.53
2018-07-19T02:53:17.278Z,19.51
2018-07-19T02:54:17.258Z,19.35
2018-07-19T02:55:17.221Z,19.38
2018-07-19T02:56:17.208Z,19.39
2018-07-19T02:57:17.187Z,19.39
2018-07-19T02:58:17.172Z,19.40
2018-07-19T02:59:17.176Z,19.38
2018-07-19T03:00:17.104Z,19.39
2018-07-19T03:01:17.097Z,19.39
2018-07-19T03:02:17.093Z,19.35
2018-07-19T03:03:17.058Z,19.29
2018-07-19T03:04:17.034Z,19.36
2018-07-19T03:05:16.995Z,19.24
2018-07-19T03:06:16.972Z,19.28
2018-07-19T03:07:16.971Z,19.25
2018-07-19T03:08:16.951Z,19.18
2018-07-19T03:09:16.933Z,19.23
2018-07-19T03:10:16.910Z,19.18
2018-07-19T03:11:16.881Z,19.13
2018-07-19T03:12:16.863Z,19.18
2018-07-19T03:13:16.845Z,19.14
2018-07-19T03:14:16.816Z,19.13
2018-07-19T03:15:16.798Z,19.17
2018-07-19T03:16:16.776Z,19.17
2018-07-19T03:17:16.758Z,19.20
2018-07-19T03:18:16.729Z,19.11
2018-07-19T03:19:16.715Z,19.13
2018-07-19T03:20:16.684Z,19.17
2018-07-19T03:21:16.664Z,19.14
2018-07-19T03:22:16.646Z,19.15
2018-07-19T03:23:16.620Z,19.11
2018-07-19T03:24:16.596Z,19.13
2018-07-19T03:25:16.578Z,18.99
2018-07-19T03:26:16.553Z,19.02
2018-07-19T03:27:16.536Z,19.10
2018-07-19T03:28:16.508Z,19.08
2018-07-19T03:29:16.484Z,18.99
2018-07-19T03:30:16.469Z,18.97
2018-07-19T03:31:16.427Z,18.97
2018-07-19T03:32:16.422Z,18.97
2018-07-19T03:33:16.406Z,19.02
2018-07-19T03:34:16.357Z,18.98
2018-07-19T03:35:16.357Z,18.94
2018-07-19T03:36:16.332Z,18.97
2018-07-19T03:37:16.318Z,19.01
2018-07-19T03:38:16.286Z,18.90
2018-07-19T03:39:16.268Z,18.94
2018-07-19T03:40:16.372Z,18.84
2018-07-19T03:41:16.228Z,18.95
2018-07-19T03:42:16.203Z,18.94
2018-07-19T03:43:16.163Z,18.91
2018-07-19T03:44:16.157Z,18.87
2018-07-19T03:45:16.132Z,18.79
2018-07-19T03:46:16.092Z,18.82
2018-07-19T03:47:16.087Z,18.83
2018-07-19T03:48:16.067Z,18.77
2018-07-19T03:49:16.048Z,18.84
2018-07-19T03:50:16.031Z,18.80
2018-07-19T03:51:16.001Z,18.79
2018-07-19T03:52:15.979Z,18.80
2018-07-19T03:53:15.951Z,18.74
2018-07-19T03:54:15.938Z,18.76
2018-07-19T03:55:15.919Z,18.65
2018-07-19T03:56:15.910Z,18.68
2018-07-19T03:57:15.871Z,18.65
2018-07-19T03:58:15.848Z,18.59
2018-07-19T03:59:15.823Z,18.54
2018-07-19T04:00:15.804Z,18.59
2018-07-19T04:01:15.785Z,18.50
2018-07-19T04:02:15.758Z,18.58
2018-07-19T04:03:15.738Z,18.55
2018-07-19T04:04:17.127Z,18.55
2018-07-19T04:05:15.694Z,18.52
2018-07-19T04:06:15.664Z,18.40
2018-07-19T04:07:15.649Z,18.40
2018-07-19T04:08:15.633Z,18.36
2018-07-19T04:09:15.602Z,18.33
2018-07-19T04:10:15.580Z,18.28
2018-07-19T04:11:15.557Z,18.27
2018-07-19T04:12:15.519Z,18.25
2018-07-19T04:13:15.514Z,18.17
2018-07-19T04:14:15.490Z,18.25
2018-07-19T04:15:15.472Z,18.25
2018-07-19T04:16:15.446Z,18.22
2018-07-19T04:17:15.406Z,18.12
2018-07-19T04:18:15.396Z,18.17
2018-07-19T04:19:15.357Z,18.12
2018-07-19T04:20:15.355Z,18.06
2018-07-19T04:21:15.334Z,18.06
2018-07-19T04:22:15.310Z,18.07
2018-07-19T04:23:15.287Z,18.00
2018-07-19T04:24:15.262Z,17.99
2018-07-19T04:25:15.359Z,17.92
2018-07-19T04:26:15.224Z,17.95
2018-07-19T04:27:15.223Z,17.97
2018-07-19T04:28:15.174Z,17.92
2018-07-19T04:29:15.156Z,17.95
2018-07-19T04:30:15.109Z,17.97
2018-07-19T04:31:15.106Z,17.78
2018-07-19T04:32:15.109Z,17.81
2018-07-19T04:33:15.064Z,17.73
2018-07-19T04:34:15.041Z,17.74
2018-07-19T04:35:15.017Z,17.74
2018-07-19T04:36:14.983Z,17.71
2018-07-19T04:37:14.969Z,17.74
2018-07-19T04:38:14.953Z,17.71
2018-07-19T04:39:14.928Z,17.66
2018-07-19T04:40:14.903Z,17.67
2018-07-19T04:41:14.883Z,17.71
2018-07-19T04:42:14.858Z,17.78
2018-07-19T04:43:14.821Z,17.74
2018-07-19T04:44:14.816Z,17.82
2018-07-19T04:45:14.787Z,17.71
2018-07-19T04:46:14.768Z,17.78
2018-07-19T04:47:14.747Z,17.82
2018-07-19T04:48:14.750Z,17.82
2018-07-19T04:49:14.697Z,17.85
2018-07-19T04:50:14.685Z,17.85
2018-07-19T04:51:14.655Z,17.88
2018-07-19T04:52:14.630Z,17.81
2018-07-19T04:53:14.615Z,17.82
2018-07-19T04:54:14.589Z,17.82
2018-07-19T04:55:14.566Z,17.81
2018-07-19T04:56:14.540Z,17.73
2018-07-19T04:57:14.516Z,17.74
2018-07-19T04:58:14.495Z,17.70
2018-07-19T04:59:14.472Z,17.79
2018-07-19T05:00:14.455Z,17.73
2018-07-19T05:01:14.429Z,17.74
2018-07-19T05:02:14.412Z,17.73
2018-07-19T05:03:14.388Z,17.79
2018-07-19T05:04:14.359Z,17.73
2018-07-19T05:05:14.338Z,17.81
2018-07-19T05:06:14.320Z,17.74
2018-07-19T05:07:14.292Z,17.76
2018-07-19T05:08:14.275Z,17.66
2018-07-19T05:09:14.246Z,17.57
2018-07-19T05:10:14.223Z,17.66
2018-07-19T05:11:14.180Z,17.59
2018-07-19T05:12:14.177Z,17.48
2018-07-19T05:13:14.150Z,17.54
2018-07-19T05:14:14.225Z,17.48
2018-07-19T05:15:14.095Z,17.51
2018-07-19T05:16:14.092Z,17.63
2018-07-19T05:17:14.063Z,17.70
2018-07-19T05:18:14.045Z,17.69
2018-07-19T05:19:14.005Z,17.78
2018-07-19T05:20:14.000Z,17.67
2018-07-19T05:21:13.956Z,17.74
2018-07-19T05:22:13.959Z,17.70
2018-07-19T05:23:13.945Z,17.81
2018-07-19T05:24:13.899Z,17.67
2018-07-19T05:25:13.930Z,17.64
2018-07-19T05:26:13.864Z,17.54
2018-07-19T05:27:13.838Z,17.46
2018-07-19T05:28:13.823Z,17.48
2018-07-19T05:29:13.794Z,17.41
2018-07-19T05:30:13.772Z,17.33
2018-07-19T05:31:13.753Z,17.30
2018-07-19T05:32:13.730Z,17.29
2018-07-19T05:33:13.701Z,17.41
2018-07-19T05:34:13.660Z,17.30
2018-07-19T05:35:13.660Z,17.40
2018-07-19T05:36:13.631Z,17.38
2018-07-19T05:37:13.595Z,17.35
2018-07-19T05:38:13.586Z,17.43
2018-07-19T05:39:13.564Z,17.43
2018-07-19T05:40:13.521Z,17.43
2018-07-19T05:41:13.495Z,17.33
2018-07-19T05:42:13.502Z,17.33
2018-07-19T05:43:13.471Z,17.46
2018-07-19T05:44:13.461Z,17.41
2018-07-19T05:45:13.425Z,17.41
2018-07-19T05:46:13.404Z,17.43
2018-07-19T05:47:13.366Z,17.40
2018-07-19T05:48:13.358Z,17.41
2018-07-19T05:49:13.318Z,17.44
2018-07-19T05:50:13.320Z,17.41
2018-07-19T05:51:13.291Z,17.41
2018-07-19T05:52:13.270Z,17.38
2018-07-19T05:53:13.247Z,17.43
2018-07-19T05:54:13.230Z,17.41
2018-07-19T05:55:13.198Z,17.44
2018-07-19T05:56:13.176Z,17.41
2018-07-19T05:57:13.153Z,17.43
2018-07-19T05:58:13.179Z,17.48
2018-07-19T05:59:13.105Z,17.53
2018-07-19T06:00:13.093Z,17.53
2018-07-19T06:01:13.063Z,17.57
2018-07-19T06:02:13.045Z,17.48
2018-07-19T06:03:13.024Z,17.57
2018-07-19T06:04:12.971Z,17.66
2018-07-19T06:05:12.973Z,17.62
2018-07-19T06:06:12.950Z,17.64
2018-07-19T06:07:12.922Z,17.57
2018-07-19T06:08:12.902Z,17.63
2018-07-19T06:09:12.877Z,17.66
2018-07-19T06:10:12.859Z,17.66
2018-07-19T06:11:12.830Z,17.59
2018-07-19T06:12:12.811Z,17.55
2018-07-19T06:13:12.781Z,17.59
2018-07-19T06:14:12.766Z,17.62
2018-07-19T06:15:12.735Z,17.63
2018-07-19T06:16:12.718Z,17.59
2018-07-19T06:17:12.690Z,17.53
2018-07-19T06:18:12.668Z,17.48
2018-07-19T06:19:12.648Z,17.59
2018-07-19T06:20:12.628Z,17.48
2018-07-19T06:21:12.602Z,17.54
2018-07-19T06:22:12.579Z,17.53
2018-07-19T06:23:12.557Z,17.48
2018-07-19T06:24:12.531Z,17.54
2018-07-19T06:25:12.514Z,17.48
2018-07-19T06:26:12.487Z,17.51
2018-07-19T06:27:12.463Z,17.53
2018-07-19T06:28:12.442Z,17.46
2018-07-19T06:29:12.419Z,17.38
2018-07-19T06:30:12.397Z,17.41
2018-07-19T06:31:12.376Z,17.32
2018-07-19T06:32:12.353Z,17.29
2018-07-19T06:33:12.316Z,17.28
2018-07-19T06:34:12.307Z,17.23
2018-07-19T06:35:12.284Z,17.28
2018-07-19T06:36:12.267Z,17.20
2018-07-19T06:37:12.238Z,17.17
2018-07-19T06:38:12.198Z,17.15
2018-07-19T06:39:12.197Z,17.11
2018-07-19T06:40:12.169Z,17.08
2018-07-19T06:41:12.188Z,17.08
2018-07-19T06:42:12.180Z,17.04
2018-07-19T06:43:12.152Z,16.98
2018-07-19T06:44:12.124Z,16.99
2018-07-19T06:45:12.109Z,16.98
2018-07-19T06:46:12.085Z,16.90
2018-07-19T06:47:12.069Z,16.90
2018-07-19T06:48:12.023Z,16.89
2018-07-19T06:49:12.013Z,16.85
2018-07-19T06:50:11.973Z,16.81
2018-07-19T06:51:11.972Z,16.98
2018-07-19T06:52:11.952Z,16.80
2018-07-19T06:53:11.868Z,16.81
2018-07-19T06:54:11.858Z,16.81
2018-07-19T06:55:11.807Z,16.80
2018-07-19T06:56:11.795Z,16.75
2018-07-19T06:57:11.776Z,16.75
2018-07-19T06:58:11.751Z,16.78
2018-07-19T06:59:11.735Z,16.85
2018-07-19T07:00:11.709Z,16.78
2018-07-19T07:01:11.681Z,16.75
2018-07-19T07:02:11.657Z,16.78
2018-07-19T07:03:11.617Z,16.83
2018-07-19T07:04:11.608Z,16.86
2018-07-19T07:05:11.593Z,16.85
2018-07-19T07:06:11.567Z,16.92
2018-07-19T07:07:11.524Z,16.99
2018-07-19T07:08:11.518Z,17.04
2018-07-19T07:09:11.500Z,17.08
2018-07-19T07:10:11.468Z,17.13
2018-07-19T07:11:11.452Z,17.06
2018-07-19T07:12:11.407Z,17.07
2018-07-19T07:13:11.403Z,16.99
2018-07-19T07:14:11.388Z,16.99
2018-07-19T07:15:11.357Z,16.85
2018-07-19T07:16:11.315Z,16.99
2018-07-19T07:17:11.310Z,16.95
2018-07-19T07:18:11.292Z,16.85
2018-07-19T07:19:11.245Z,16.96
2018-07-19T07:20:11.245Z,16.88
2018-07-19T07:21:11.258Z,16.86
2018-07-19T07:22:11.200Z,16.86
2018-07-19T07:23:11.177Z,16.85
2018-07-19T07:24:11.174Z,16.83
2018-07-19T07:25:11.125Z,16.83
2018-07-19T07:26:11.102Z,16.83
2018-07-19T07:27:11.056Z,16.93
2018-07-19T07:28:11.079Z,17.08
2018-07-19T07:29:11.029Z,17.06
2018-07-19T07:30:11.016Z,17.07
2018-07-19T07:31:10.989Z,17.07
2018-07-19T07:32:10.968Z,17.06
2018-07-19T07:33:10.943Z,17.03
2018-07-19T07:34:10.960Z,16.98
2018-07-19T07:35:10.923Z,17.00
2018-07-19T07:36:10.867Z,16.93
2018-07-19T07:37:10.849Z,16.86
2018-07-19T07:38:10.834Z,16.80
2018-07-19T07:39:10.802Z,16.74
2018-07-19T07:40:10.757Z,16.71
2018-07-19T07:41:10.759Z,16.75
2018-07-19T07:42:10.728Z,16.73
2018-07-19T07:43:10.710Z,16.67
2018-07-19T07:44:10.693Z,16.68
2018-07-19T07:45:10.665Z,16.63
2018-07-19T07:46:10.640Z,16.56
2018-07-19T07:47:10.623Z,16.50
2018-07-19T07:48:10.582Z,16.52
2018-07-19T07:49:10.554Z,16.50
2018-07-19T07:50:10.543Z,16.53
2018-07-19T07:51:10.526Z,16.56
2018-07-19T07:52:10.501Z,16.56
2018-07-19T07:53:10.474Z,16.56
2018-07-19T07:54:10.493Z,16.53
2018-07-19T07:55:10.436Z,16.55
2018-07-19T07:56:10.411Z,16.52
2018-07-19T07:57:10.368Z,16.52
2018-07-19T07:58:10.365Z,16.49
2018-07-19T07:59:10.348Z,16.53
2018-07-19T08:00:10.316Z,16.45
2018-07-19T08:01:10.271Z,16.49
2018-07-19T08:02:10.272Z,16.53
2018-07-19T08:03:10.227Z,16.50
2018-07-19T08:04:10.226Z,16.52
2018-07-19T08:05:10.197Z,16.50
2018-07-19T08:06:10.161Z,16.45
2018-07-19T08:07:10.153Z,16.50
2018-07-19T08:08:10.127Z,16.45
2018-07-19T08:09:10.113Z,16.48
2018-07-19T08:10:10.086Z,16.52
2018-07-19T08:11:10.059Z,16.41
2018-07-19T08:12:10.013Z,16.49
2018-07-19T08:13:09.997Z,16.45
2018-07-19T08:14:09.976Z,16.37
2018-07-19T08:15:09.960Z,16.50
2018-07-19T08:16:09.948Z,16.42
2018-07-19T08:17:09.919Z,16.40
2018-07-19T08:18:09.894Z,16.40
2018-07-19T08:19:09.851Z,16.41
2018-07-19T08:20:09.827Z,16.42
2018-07-19T08:21:09.824Z,16.48
2018-07-19T08:22:09.797Z,16.48
2018-07-19T08:23:09.780Z,16.41
2018-07-19T08:24:09.734Z,16.45
2018-07-19T08:25:09.732Z,16.50
2018-07-19T08:26:09.711Z,16.48
2018-07-19T08:27:09.687Z,16.35
2018-07-19T08:28:09.665Z,16.42
2018-07-19T08:29:09.686Z,16.41
2018-07-19T08:30:09.595Z,16.27
2018-07-19T08:31:09.589Z,16.37
2018-07-19T08:32:09.568Z,16.26
2018-07-19T08:33:09.549Z,16.27
2018-07-19T08:34:09.519Z,16.26
2018-07-19T08:35:09.473Z,16.16
2018-07-19T08:36:09.532Z,16.18
2018-07-19T08:37:09.453Z,16.20
2018-07-19T08:38:09.421Z,16.22
2018-07-19T08:39:09.402Z,16.18
2018-07-19T08:40:09.384Z,16.18
2018-07-19T08:41:09.358Z,16.15
2018-07-19T08:42:09.332Z,16.12
2018-07-19T08:43:09.287Z,16.11
2018-07-19T08:44:09.285Z,16.11
2018-07-19T08:45:09.265Z,16.07
2018-07-19T08:46:09.234Z,16.14
2018-07-19T08:47:09.210Z,16.07
2018-07-19T08:48:09.176Z,16.07
2018-07-19T08:49:09.152Z,16.03
2018-07-19T08:50:09.146Z,16.11
2018-07-19T08:51:09.117Z,16.06
2018-07-19T08:52:09.101Z,16.04
2018-07-19T08:53:09.074Z,16.03
2018-07-19T08:54:09.046Z,16.09
2018-07-19T08:55:09.022Z,16.04
2018-07-19T08:56:08.978Z,16.11
2018-07-19T08:57:08.979Z,16.01
2018-07-19T08:58:08.958Z,16.04
2018-07-19T08:59:08.929Z,16.03
2018-07-19T09:00:08.908Z,16.03
2018-07-19T09:01:08.866Z,16.03
2018-07-19T09:02:08.865Z,15.97
2018-07-19T09:03:08.820Z,16.01
2018-07-19T09:04:08.792Z,15.93
2018-07-19T09:05:08.791Z,16.06
2018-07-19T09:06:08.758Z,16.03
2018-07-19T09:07:08.741Z,16.11
2018-07-19T09:08:08.721Z,16.06
2018-07-19T09:09:08.674Z,16.18
2018-07-19T09:10:08.677Z,16.11
2018-07-19T09:11:08.627Z,16.15
2018-07-19T09:12:08.622Z,16.16
2018-07-19T09:13:08.603Z,16.15
2018-07-19T09:14:08.643Z,16.01
2018-07-19T09:15:08.539Z,16.03
2018-07-19T09:16:08.528Z,15.97
2018-07-19T09:17:08.510Z,15.96
2018-07-19T09:18:08.483Z,15.86
2018-07-19T09:19:08.441Z,15.79
2018-07-19T09:20:08.431Z,15.81
2018-07-19T09:21:08.399Z,15.79
2018-07-19T09:22:08.387Z,15.72
2018-07-19T09:23:08.342Z,15.72
2018-07-19T09:24:08.336Z,15.72
2018-07-19T09:25:08.314Z,15.67
2018-07-19T09:26:08.296Z,15.70
2018-07-19T09:27:08.273Z,15.74
2018-07-19T09:28:08.246Z,15.75
2018-07-19T09:29:08.418Z,15.84
2018-07-19T09:30:08.200Z,15.82
2018-07-19T09:31:08.177Z,15.81
2018-07-19T09:32:08.155Z,15.84
2018-07-19T09:33:08.110Z,15.70
2018-07-19T09:34:08.089Z,15.72
2018-07-19T09:35:08.081Z,15.70
2018-07-19T09:36:08.054Z,15.72
2018-07-19T09:37:08.031Z,15.72
2018-07-19T09:38:08.012Z,15.84
2018-07-19T09:39:07.980Z,15.82
2018-07-19T09:40:07.962Z,15.74
2018-07-19T09:41:07.933Z,15.68
2018-07-19T09:42:07.910Z,15.66
2018-07-19T09:43:07.891Z,15.63
2018-07-19T09:44:07.850Z,15.54
2018-07-19T09:45:07.826Z,15.54
2018-07-19T09:46:07.820Z,15.54
2018-07-19T09:47:07.780Z,15.54
2018-07-19T09:48:07.772Z,15.56
2018-07-19T09:49:07.746Z,15.51
2018-07-19T09:50:07.720Z,15.64
2018-07-19T09:51:07.695Z,15.67
2018-07-19T09:52:07.674Z,15.60
2018-07-19T09:53:07.651Z,15.72
2018-07-19T09:54:07.629Z,15.68
2018-07-19T09:55:07.604Z,15.72
2018-07-19T09:56:07.591Z,15.76
2018-07-19T09:57:07.553Z,15.79
2018-07-19T09:58:07.525Z,15.84
2018-07-19T09:59:07.517Z,15.96
2018-07-19T10:00:07.472Z,15.96
2018-07-19T10:01:07.448Z,16.04
2018-07-19T10:02:07.434Z,16.16
2018-07-19T10:03:07.417Z,16.07
2018-07-19T10:04:07.393Z,16.22
2018-07-19T10:05:07.362Z,16.30
2018-07-19T10:06:07.324Z,16.27
2018-07-19T10:07:07.322Z,16.37
2018-07-19T10:08:07.281Z,16.45
2018-07-19T10:09:07.271Z,16.56
2018-07-19T10:10:07.300Z,16.62
2018-07-19T10:11:07.220Z,16.63
2018-07-19T10:12:07.241Z,16.63
2018-07-19T10:13:07.178Z,16.81
2018-07-19T10:14:07.157Z,16.83
2018-07-19T10:15:07.135Z,16.83
2018-07-19T10:16:07.106Z,16.88
2018-07-19T10:17:07.078Z,16.85
2018-07-19T10:18:07.060Z,16.86
2018-07-19T10:19:07.037Z,16.92
2018-07-19T10:20:07.016Z,16.85
2018-07-19T10:21:06.996Z,16.93
2018-07-19T10:22:06.971Z,16.99
2018-07-19T10:23:06.945Z,17.08
2018-07-19T10:24:06.922Z,17.06
2018-07-19T10:25:06.901Z,17.11
2018-07-19T10:26:06.870Z,17.13
2018-07-19T10:27:06.860Z,17.20
2018-07-19T10:28:06.829Z,17.18
2018-07-19T10:29:06.809Z,17.32
2018-07-19T10:30:06.765Z,17.26
2018-07-19T10:31:06.764Z,17.28
2018-07-19T10:32:06.825Z,17.40
2018-07-19T10:33:06.714Z,17.43
2018-07-19T10:34:06.715Z,17.36
2018-07-19T10:35:06.650Z,17.50
2018-07-19T10:36:06.653Z,17.54
2018-07-19T10:37:06.619Z,17.53
2018-07-19T10:38:06.603Z,17.69
2018-07-19T10:39:06.567Z,17.66
2018-07-19T10:40:06.561Z,17.66
2018-07-19T10:41:06.532Z,17.71
2018-07-19T10:42:06.494Z,17.70
2018-07-19T10:43:06.513Z,17.78
2018-07-19T10:44:06.463Z,17.76
2018-07-19T10:45:06.545Z,17.88
2018-07-19T10:46:06.503Z,17.94
2018-07-19T10:47:06.405Z,18.07
2018-07-19T10:48:06.377Z,18.18
2018-07-19T10:49:06.341Z,18.34
2018-07-19T10:50:06.323Z,18.44
2018-07-19T10:51:06.328Z,18.49
2018-07-19T10:52:06.295Z,18.76
2018-07-19T10:53:06.274Z,18.72
2018-07-19T10:54:06.252Z,18.82
2018-07-19T10:55:06.223Z,18.86
2018-07-19T10:56:06.204Z,19.01
2018-07-19T10:57:06.189Z,19.18
2018-07-19T10:58:06.162Z,19.25
2018-07-19T10:59:06.142Z,19.36
2018-07-19T11:00:06.123Z,19.50
2018-07-19T11:01:06.104Z,19.60
2018-07-19T11:02:06.092Z,19.73
2018-07-19T11:03:06.062Z,19.75
2018-07-19T11:04:06.038Z,19.95
2018-07-19T11:05:06.025Z,20.12
2018-07-19T11:06:06.005Z,20.23
2018-07-19T11:07:05.981Z,20.53
2018-07-19T11:08:05.962Z,20.65
2018-07-19T11:09:05.984Z,20.66
2018-07-19T11:10:05.932Z,20.80
2018-07-19T11:11:05.901Z,20.84
2018-07-19T11:12:05.889Z,20.95
2018-07-19T11:13:05.866Z,21.06
2018-07-19T11:14:05.848Z,21.02
2018-07-19T11:15:05.822Z,21.14
2018-07-19T11:16:05.808Z,21.19
2018-07-19T11:17:05.769Z,21.08
2018-07-19T11:18:05.777Z,21.23
2018-07-19T11:19:05.747Z,21.27
2018-07-19T11:20:05.725Z,21.26
2018-07-19T11:21:05.711Z,21.16
2018-07-19T11:22:05.679Z,20.98
2018-07-19T11:23:05.672Z,21.01
2018-07-19T11:24:05.657Z,21.08
2018-07-19T11:25:05.638Z,21.42
2018-07-19T11:26:05.622Z,21.67
2018-07-19T11:27:05.597Z,21.94
2018-07-19T11:28:05.582Z,22.07
2018-07-19T11:29:05.547Z,22.16
2018-07-19T11:30:05.546Z,22.12
2018-07-19T11:31:05.524Z,22.06
2018-07-19T11:32:05.507Z,22.02
2018-07-19T11:33:05.477Z,21.94
2018-07-19T11:34:05.457Z,21.98
2018-07-19T11:35:05.453Z,21.81
2018-07-19T11:36:05.436Z,21.42
2018-07-19T11:37:05.418Z,21.27
2018-07-19T11:38:05.401Z,21.46
2018-07-19T11:39:05.382Z,21.50
2018-07-19T11:40:05.364Z,21.79
2018-07-19T11:41:05.340Z,22.01
2018-07-19T11:42:05.330Z,22.14
2018-07-19T11:43:05.309Z,22.31
2018-07-19T11:44:05.295Z,22.57
2018-07-19T11:45:05.270Z,22.44
2018-07-19T11:46:05.257Z,22.34
2018-07-19T11:47:05.235Z,22.20
2018-07-19T11:48:05.218Z,22.10
2018-07-19T11:49:05.186Z,22.14
2018-07-19T11:50:05.186Z,22.17
2018-07-19T11:51:05.156Z,22.31
2018-07-19T11:52:05.154Z,22.39
2018-07-19T11:53:05.111Z,22.41
2018-07-19T11:54:05.115Z,22.29
2018-07-19T11:55:05.078Z,22.53
2018-07-19T11:56:05.078Z,22.74
2018-07-19T11:57:05.066Z,23.01
2018-07-19T11:58:05.046Z,22.96
2018-07-19T11:59:05.006Z,22.82
2018-07-19T12:00:05.009Z,22.86
2018-07-19T12:01:04.989Z,22.86
2018-07-19T12:02:04.976Z,22.97
2018-07-19T12:03:04.961Z,23.14
2018-07-19T12:04:04.943Z,23.14
2018-07-19T12:05:04.925Z,22.87
2018-07-19T12:06:04.891Z,22.78
2018-07-19T12:07:04.888Z,22.93
2018-07-19T12:08:04.851Z,22.82
2018-07-19T12:09:04.860Z,22.97
2018-07-19T12:10:04.846Z,23.34
2018-07-19T12:11:04.819Z,23.75
2018-07-19T12:12:04.812Z,23.75
2018-07-19T12:13:04.797Z,23.53
2018-07-19T12:14:04.755Z,23.45
2018-07-19T12:15:04.755Z,23.38
2018-07-19T12:16:04.721Z,23.46
2018-07-19T12:17:04.708Z,23.57
2018-07-19T12:18:04.724Z,23.43
2018-07-19T12:19:04.673Z,23.47
2018-07-19T12:20:04.676Z,23.46
2018-07-19T12:21:04.663Z,23.38
2018-07-19T12:22:04.641Z,23.49
2018-07-19T12:23:04.621Z,23.62
2018-07-19T12:24:04.612Z,23.68
2018-07-19T12:25:04.591Z,23.77
2018-07-19T12:26:04.582Z,23.82
2018-07-19T12:27:04.570Z,23.90
2018-07-19T12:28:04.548Z,24.01
2018-07-19T12:29:04.532Z,23.94
2018-07-19T12:30:04.500Z,23.76
2018-07-19T12:31:04.496Z,23.68
2018-07-19T12:32:04.478Z,23.71
2018-07-19T12:33:04.465Z,23.71
2018-07-19T12:34:04.439Z,23.86
2018-07-19T12:35:04.433Z,23.94
2018-07-19T12:36:04.417Z,23.97
2018-07-19T12:37:04.398Z,23.95
2018-07-19T12:38:04.385Z,23.95
2018-07-19T12:39:04.374Z,24.04
2018-07-19T12:40:04.344Z,23.92
2018-07-19T12:41:04.320Z,23.87
2018-07-19T12:42:04.323Z,24.08
2018-07-19T12:43:04.313Z,23.98
2018-07-19T12:44:04.292Z,23.68
2018-07-19T12:45:04.267Z,23.64
2018-07-19T12:46:04.260Z,23.61
2018-07-19T12:47:04.226Z,23.71
2018-07-19T12:48:04.225Z,23.68
2018-07-19T12:49:04.217Z,23.71
2018-07-19T12:50:04.197Z,23.58
2018-07-19T12:51:04.163Z,23.64
2018-07-19T12:52:04.174Z,23.75